createdAt,value
2023-04-09T00:00:41.377Z,89.90
2023-04-09T00:03:08.259Z,89.88
2023-04-09T00:05:41.490Z,90.05
2023-04-09T00:08:08.326Z,89.69
2023-04-09T00:10:34.968Z,89.31
2023-04-09T00:13:01.503Z,89.28
2023-04-09T00:15:31.339Z,89.47
2023-04-09T00:17:59.064Z,89.42
2023-04-09T00:20:25.902Z,89.35
2023-04-09T00:22:52.511Z,89.46
2023-04-09T00:25:19.933Z,89.40
2023-04-09T00:27:47.162Z,89.35
2023-04-09T00:30:13.817Z,89.44
2023-04-09T00:32:40.876Z,89.29
2023-04-09T00:35:07.877Z,89.27
2023-04-09T00:37:34.597Z,89.10
2023-04-09T00:40:01.102Z,89.53
2023-04-09T00:42:27.708Z,89.40
2023-04-09T00:44:54.215Z,89.20
2023-04-09T00:47:20.857Z,89.86
2023-04-09T00:49:47.455Z,89.51
2023-04-09T00:52:14.042Z,89.84
2023-04-09T00:54:40.883Z,89.40
2023-04-09T00:57:07.352Z,89.49
2023-04-09T00:59:33.969Z,89.57
2023-04-09T01:02:00.636Z,89.43
2023-04-09T01:04:27.311Z,89.72
2023-04-09T01:06:59.587Z,89.77
2023-04-09T01:09:34.543Z,89.89
2023-04-09T01:12:52.219Z,89.47
2023-04-09T01:15:26.002Z,89.47
2023-04-09T01:18:13.741Z,89.90
2023-04-09T01:20:43.501Z,89.71
2023-04-09T01:23:29.963Z,89.59
2023-04-09T01:26:22.998Z,89.32
2023-04-09T01:28:53.959Z,89.80
2023-04-09T01:31:23.544Z,89.87
2023-04-09T01:33:51.928Z,90.33
2023-04-09T01:36:19.417Z,90.02
2023-04-09T01:38:46.931Z,90.02
2023-04-09T01:41:15.880Z,90.39
2023-04-09T01:43:43.227Z,90.12
2023-04-09T01:46:10.645Z,90.26
2023-04-09T01:48:37.537Z,90.08
2023-04-09T01:51:04.431Z,90.19
2023-04-09T01:53:31.253Z,90.52
2023-04-09T01:56:01.778Z,89.98
2023-04-09T01:58:28.537Z,89.87
2023-04-09T02:01:05.605Z,90.32
2023-04-09T02:03:39.541Z,89.78
2023-04-09T02:06:15.721Z,90.07
2023-04-09T02:08:46.969Z,89.85
2023-04-09T02:11:15.359Z,89.35
2023-04-09T02:13:43.084Z,89.47
2023-04-09T02:16:12.056Z,89.48
2023-04-09T02:18:38.678Z,89.57
2023-04-09T02:21:05.958Z,89.85
2023-04-09T02:23:33.291Z,89.96
2023-04-09T02:26:00.007Z,90.12
2023-04-09T02:28:26.579Z,89.88
2023-04-09T02:30:53.338Z,90.19
2023-04-09T02:33:19.865Z,90.32
2023-04-09T02:35:46.624Z,90.40
2023-04-09T02:38:16.193Z,90.62
2023-04-09T02:40:43.398Z,90.37
2023-04-09T02:43:10.266Z,90.73
2023-04-09T02:45:36.893Z,90.65
2023-04-09T02:48:04.460Z,90.47
2023-04-09T02:50:31.052Z,90.01
2023-04-09T02:52:57.573Z,89.92
2023-04-09T02:55:24.045Z,90.07
2023-04-09T02:57:50.589Z,89.96
2023-04-09T03:00:17.195Z,89.87
2023-04-09T03:02:43.837Z,90.01
2023-04-09T03:05:10.390Z,90.00
2023-04-09T03:07:37.054Z,89.67
2023-04-09T03:10:04.608Z,90.24
2023-04-09T03:12:31.079Z,90.54
2023-04-09T03:14:57.620Z,90.27
2023-04-09T03:17:27.105Z,90.29
2023-04-09T03:19:53.786Z,90.23
2023-04-09T03:22:20.366Z,90.39
2023-04-09T03:24:46.915Z,90.56
2023-04-09T03:27:13.549Z,90.39
2023-04-09T03:29:40.128Z,90.31
2023-04-09T03:32:06.866Z,90.16
2023-04-09T03:34:33.392Z,90.23
2023-04-09T03:36:59.926Z,90.06
2023-04-09T03:39:30.768Z,90.10
2023-04-09T03:41:58.956Z,90.00
2023-04-09T03:44:25.830Z,89.88
2023-04-09T03:46:52.493Z,89.05
2023-04-09T03:49:19.165Z,88.95
2023-04-09T03:51:45.971Z,89.79
2023-04-09T03:54:12.598Z,90.09
2023-04-09T03:56:39.147Z,90.49
2023-04-09T03:59:06.545Z,90.88
2023-04-09T04:01:33.136Z,90.81
2023-04-09T04:03:59.793Z,91.32
2023-04-09T04:06:27.278Z,90.96
2023-04-09T04:08:54.125Z,90.81
2023-04-09T04:11:20.985Z,90.56
2023-04-09T04:13:47.558Z,90.46
2023-04-09T04:16:14.288Z,90.46
2023-04-09T04:18:41.041Z,90.51
2023-04-09T04:21:13.886Z,90.35
2023-04-09T04:23:40.900Z,90.36
2023-04-09T04:26:10.178Z,90.27
2023-04-09T04:28:38.091Z,90.38
2023-04-09T04:31:10.048Z,90.32
2023-04-09T04:33:37.542Z,89.82
2023-04-09T04:36:08.648Z,90.01
2023-04-09T04:38:36.433Z,90.26
2023-04-09T04:41:07.080Z,90.20
2023-04-09T04:43:34.148Z,90.54
2023-04-09T04:46:01.643Z,90.46
2023-04-09T04:48:32.194Z,90.17
2023-04-09T04:51:00.884Z,88.64
2023-04-09T04:53:28.061Z,89.24
2023-04-09T04:55:54.979Z,88.52
2023-04-09T04:58:21.642Z,89.05
2023-04-09T05:00:48.515Z,89.16
2023-04-09T05:03:16.367Z,89.57
2023-04-09T05:05:43.292Z,89.61
2023-04-09T05:08:10.032Z,88.90
2023-04-09T05:10:37.033Z,88.48
2023-04-09T05:13:04.881Z,88.71
2023-04-09T05:15:32.135Z,89.17
2023-04-09T05:17:59.626Z,89.57
2023-04-09T05:20:27.944Z,89.30
2023-04-09T05:22:54.573Z,88.45
2023-04-09T05:25:21.770Z,88.54
2023-04-09T05:27:48.772Z,88.92
2023-04-09T05:30:15.781Z,88.25
2023-04-09T05:32:42.558Z,88.09
2023-04-09T05:35:09.482Z,87.21
2023-04-09T05:37:35.995Z,87.65
2023-04-09T05:40:03.280Z,86.08
2023-04-09T05:42:30.024Z,86.72
2023-04-09T05:44:56.585Z,85.77
2023-04-09T05:47:23.228Z,84.16
2023-04-09T05:49:49.988Z,83.54
2023-04-09T05:52:21.419Z,84.22
2023-04-09T05:54:47.986Z,84.10
2023-04-09T05:57:15.483Z,82.83
2023-04-09T05:59:42.085Z,82.55
2023-04-09T06:02:08.598Z,81.58
2023-04-09T06:04:35.429Z,81.49
2023-04-09T06:07:02.321Z,82.53
2023-04-09T06:09:29.314Z,83.58
2023-04-09T06:11:56.166Z,82.30
2023-04-09T06:14:22.796Z,81.69
2023-04-09T06:16:49.486Z,80.79
2023-04-09T06:19:16.871Z,78.83
2023-04-09T06:21:43.749Z,78.17
2023-04-09T06:24:10.294Z,77.03
2023-04-09T06:26:37.089Z,77.82
2023-04-09T06:29:04.886Z,77.38
2023-04-09T06:31:32.364Z,75.35
2023-04-09T06:33:59.354Z,76.01
2023-04-09T06:36:27.284Z,77.55
2023-04-09T06:38:54.418Z,77.32
2023-04-09T06:41:24.825Z,75.55
2023-04-09T06:43:51.631Z,77.22
2023-04-09T06:46:20.330Z,77.85
2023-04-09T06:48:47.214Z,76.90
2023-04-09T06:51:14.930Z,75.77
2023-04-09T06:53:41.616Z,75.93
2023-04-09T06:56:08.255Z,76.00
2023-04-09T06:58:34.715Z,73.53
2023-04-09T07:01:01.470Z,72.56
2023-04-09T07:03:29.124Z,71.15
2023-04-09T07:05:56.601Z,71.76
2023-04-09T07:08:23.725Z,70.90
2023-04-09T07:10:50.526Z,70.13
2023-04-09T07:13:17.290Z,69.74
2023-04-09T07:15:43.922Z,69.94
2023-04-09T07:18:10.760Z,68.80
2023-04-09T07:20:37.345Z,67.87
2023-04-09T07:23:04.667Z,67.12
2023-04-09T07:25:31.210Z,66.20
2023-04-09T07:27:57.829Z,65.64
2023-04-09T07:30:24.593Z,66.90
2023-04-09T07:32:51.823Z,67.91
2023-04-09T07:35:18.818Z,67.25
2023-04-09T07:37:45.390Z,66.40
2023-04-09T07:40:12.167Z,66.86
2023-04-09T07:42:39.379Z,64.45
2023-04-09T07:45:07.020Z,64.13
2023-04-09T07:47:33.912Z,65.03
2023-04-09T07:50:00.759Z,63.10
2023-04-09T07:52:27.537Z,62.60
2023-04-09T07:54:54.166Z,61.74
2023-04-09T07:57:20.712Z,63.23
2023-04-09T07:59:47.592Z,63.87
2023-04-09T08:02:15.437Z,63.44
2023-04-09T08:04:42.499Z,62.65
2023-04-09T08:07:09.495Z,63.41
2023-04-09T08:09:36.576Z,62.74
2023-04-09T08:12:04.671Z,61.53
2023-04-09T08:14:31.588Z,62.85
2023-04-09T08:16:58.180Z,62.14
2023-04-09T08:19:24.781Z,62.36
2023-04-09T08:21:52.567Z,62.42
2023-04-09T08:24:19.285Z,61.97
2023-04-09T08:26:46.155Z,60.28
2023-04-09T08:29:13.692Z,59.29
2023-04-09T08:31:40.632Z,59.91
2023-04-09T08:34:07.272Z,59.68
2023-04-09T08:36:35.446Z,60.18
2023-04-09T08:39:03.310Z,59.81
2023-04-09T08:41:30.668Z,59.33
2023-04-09T08:43:59.554Z,57.50
2023-04-09T08:46:27.275Z,56.07
2023-04-09T08:48:54.350Z,56.27
2023-04-09T08:51:24.667Z,55.59
2023-04-09T08:54:00.766Z,55.60
2023-04-09T08:56:30.413Z,57.63
2023-04-09T08:58:56.943Z,55.07
2023-04-09T09:01:28.339Z,54.72
2023-04-09T09:04:04.595Z,55.77
2023-04-09T09:06:41.707Z,56.75
2023-04-09T09:09:10.678Z,57.46
2023-04-09T09:11:39.156Z,58.23
2023-04-09T09:14:10.910Z,58.68
2023-04-09T09:16:42.802Z,58.77
2023-04-09T09:19:10.668Z,59.17
2023-04-09T09:21:38.723Z,60.56
2023-04-09T09:24:17.091Z,58.18
2023-04-09T09:26:43.882Z,58.96
2023-04-09T09:29:10.611Z,57.97
2023-04-09T09:31:47.695Z,56.60
2023-04-09T09:34:14.392Z,56.35
2023-04-09T09:36:40.930Z,56.29
2023-04-09T09:39:12.156Z,55.92
2023-04-09T09:41:39.905Z,54.71
2023-04-09T09:44:07.312Z,54.59
2023-04-09T09:46:38.799Z,56.03
2023-04-09T09:49:06.338Z,55.98
2023-04-09T09:51:34.351Z,55.50
2023-04-09T09:54:01.664Z,54.68
2023-04-09T09:56:33.328Z,52.22
2023-04-09T09:59:15.744Z,53.28
2023-04-09T10:01:44.031Z,53.43
2023-04-09T10:04:15.137Z,51.52
2023-04-09T10:06:45.517Z,51.22
2023-04-09T10:09:13.341Z,52.31
2023-04-09T10:11:43.828Z,52.48
2023-04-09T10:14:11.105Z,53.09
2023-04-09T10:16:37.726Z,54.13
2023-04-09T10:19:13.346Z,53.00
2023-04-09T10:21:54.127Z,52.29
2023-04-09T10:24:21.587Z,51.49
2023-04-09T10:26:48.368Z,51.78
2023-04-09T10:29:18.302Z,53.02
2023-04-09T10:32:26.708Z,53.33
2023-04-09T10:34:57.487Z,51.16
2023-04-09T10:37:25.862Z,53.15
2023-04-09T10:39:53.216Z,52.83
2023-04-09T10:42:27.395Z,52.68
2023-04-09T10:45:11.681Z,53.42
2023-04-09T10:47:40.797Z,53.28
2023-04-09T10:50:21.045Z,52.59
2023-04-09T10:52:52.513Z,51.30
2023-04-09T10:55:41.399Z,52.31
2023-04-09T10:58:13.499Z,52.99
2023-04-09T11:00:41.998Z,53.06
2023-04-09T11:03:23.570Z,53.22
2023-04-09T11:06:09.547Z,53.02
2023-04-09T11:08:38.357Z,52.73
2023-04-09T11:11:06.055Z,53.28
2023-04-09T11:13:34.099Z,53.25
2023-04-09T11:16:04.965Z,54.26
2023-04-09T11:18:33.916Z,54.42
2023-04-09T11:21:04.945Z,53.49
2023-04-09T11:23:32.946Z,53.40
2023-04-09T11:25:59.945Z,52.96
2023-04-09T11:28:26.734Z,52.67
2023-04-09T11:30:53.642Z,53.10
2023-04-09T11:33:20.693Z,51.39
2023-04-09T11:35:48.313Z,50.53
2023-04-09T11:38:15.046Z,51.93
2023-04-09T11:40:48.483Z,51.95
2023-04-09T11:43:16.896Z,49.94
2023-04-09T11:45:44.382Z,50.62
2023-04-09T11:48:11.677Z,51.59
2023-04-09T11:50:38.479Z,50.93
2023-04-09T11:53:17.943Z,51.43
2023-04-09T11:56:07.756Z,50.44
2023-04-09T11:58:34.312Z,52.22
2023-04-09T12:01:01.225Z,51.99
2023-04-09T12:03:30.983Z,51.52
2023-04-09T12:06:01.620Z,50.08
2023-04-09T12:08:28.429Z,50.49
2023-04-09T12:10:55.482Z,50.36
2023-04-09T12:13:22.066Z,50.31
2023-04-09T12:15:49.697Z,49.58
2023-04-09T12:18:16.336Z,49.46
2023-04-09T12:20:47.819Z,49.92
2023-04-09T12:23:14.620Z,50.11
2023-04-09T12:25:43.625Z,50.34
2023-04-09T12:28:13.671Z,50.25
2023-04-09T12:30:40.736Z,49.88
2023-04-09T12:33:10.815Z,49.94
2023-04-09T12:35:38.407Z,49.11
2023-04-09T12:38:05.688Z,49.27
2023-04-09T12:40:32.434Z,49.56
2023-04-09T12:42:59.176Z,49.36
2023-04-09T12:45:26.041Z,49.55
2023-04-09T12:47:53.180Z,49.83
2023-04-09T12:50:19.951Z,49.17
2023-04-09T12:52:46.866Z,49.69
2023-04-09T12:55:14.436Z,47.79
2023-04-09T12:57:44.122Z,47.25
2023-04-09T13:00:11.450Z,47.28
2023-04-09T13:02:38.292Z,49.78
2023-04-09T13:05:05.542Z,48.82
2023-04-09T13:07:32.416Z,47.21
2023-04-09T13:09:59.206Z,47.01
2023-04-09T13:12:25.843Z,47.26
2023-04-09T13:14:54.404Z,47.09
2023-04-09T13:17:20.983Z,48.13
2023-04-09T13:19:47.725Z,48.84
2023-04-09T13:22:14.675Z,49.31
2023-04-09T13:24:41.392Z,49.91
2023-04-09T13:27:11.149Z,51.89
2023-04-09T13:29:38.167Z,54.05
2023-04-09T13:32:07.526Z,58.69
2023-04-09T13:34:35.033Z,62.71
2023-04-09T13:37:05.050Z,64.00
2023-04-09T13:39:31.922Z,64.03
2023-04-09T13:41:58.612Z,66.58
2023-04-09T13:44:26.676Z,67.83
2023-04-09T13:46:53.562Z,69.13
2023-04-09T13:49:21.043Z,69.03
2023-04-09T13:51:49.576Z,69.83
2023-04-09T13:54:16.876Z,69.46
2023-04-09T13:56:44.386Z,67.65
2023-04-09T13:59:10.929Z,68.43
2023-04-09T14:01:37.664Z,68.73
2023-04-09T14:04:05.280Z,70.00
2023-04-09T14:06:32.007Z,69.84
2023-04-09T14:08:58.594Z,69.12
2023-04-09T14:11:25.402Z,70.09
2023-04-09T14:13:52.150Z,69.15
2023-04-09T14:16:19.190Z,70.05
2023-04-09T14:18:45.934Z,70.35
2023-04-09T14:21:12.814Z,69.51
2023-04-09T14:23:40.133Z,70.64
2023-04-09T14:26:06.922Z,70.22
2023-04-09T14:28:33.617Z,69.90
2023-04-09T14:31:00.914Z,69.63
2023-04-09T14:33:27.675Z,68.60
2023-04-09T14:35:54.368Z,68.69
2023-04-09T14:38:21.250Z,67.89
2023-04-09T14:40:47.824Z,69.16
2023-04-09T14:43:14.474Z,68.27
2023-04-09T14:45:41.215Z,67.51
2023-04-09T14:48:08.216Z,67.03
2023-04-09T14:50:36.189Z,67.00
2023-04-09T14:53:04.321Z,66.05
2023-04-09T14:55:30.861Z,66.11
2023-04-09T14:57:58.627Z,65.97
2023-04-09T15:00:25.492Z,66.42
2023-04-09T15:02:52.312Z,68.45
2023-04-09T15:05:19.126Z,70.37
2023-04-09T15:07:45.654Z,69.82
2023-04-09T15:10:12.412Z,69.14
2023-04-09T15:12:38.978Z,69.09
2023-04-09T15:15:07.401Z,68.50
2023-04-09T15:17:34.050Z,68.11
2023-04-09T15:20:00.741Z,67.39
2023-04-09T15:22:27.300Z,65.69
2023-04-09T15:24:54.048Z,66.35
2023-04-09T15:27:20.615Z,66.39
2023-04-09T15:29:47.276Z,66.65
2023-04-09T15:32:13.945Z,66.61
2023-04-09T15:34:40.445Z,66.40
2023-04-09T15:37:06.996Z,66.34
2023-04-09T15:39:35.036Z,66.65
2023-04-09T15:42:01.984Z,67.06
2023-04-09T15:44:29.304Z,66.37
2023-04-09T15:46:56.109Z,65.39
2023-04-09T15:49:22.875Z,64.17
2023-04-09T15:51:49.458Z,64.85
2023-04-09T15:54:16.026Z,64.84
2023-04-09T15:56:42.817Z,64.75
2023-04-09T15:59:09.584Z,64.32
2023-04-09T16:01:36.456Z,64.08
2023-04-09T16:04:04.937Z,64.52
2023-04-09T16:06:32.365Z,64.63
2023-04-09T16:08:59.022Z,64.24
2023-04-09T16:11:26.262Z,63.53
2023-04-09T16:13:53.290Z,62.19
2023-04-09T16:16:20.703Z,61.21
2023-04-09T16:18:47.615Z,60.37
2023-04-09T16:21:14.137Z,60.92
2023-04-09T16:23:40.987Z,61.79
2023-04-09T16:26:10.352Z,61.03
2023-04-09T16:28:37.046Z,62.15
2023-04-09T16:31:04.664Z,62.00
2023-04-09T16:33:31.388Z,61.69
2023-04-09T16:35:57.945Z,62.73
2023-04-09T16:38:27.458Z,62.60
2023-04-09T16:40:54.372Z,63.37
2023-04-09T16:43:20.913Z,63.86
2023-04-09T16:45:47.734Z,64.10
2023-04-09T16:48:14.502Z,63.97
2023-04-09T16:50:41.624Z,64.22
2023-04-09T16:53:08.274Z,64.51
2023-04-09T16:55:35.468Z,64.75
2023-04-09T16:58:03.509Z,65.17
2023-04-09T17:00:30.077Z,65.23
2023-04-09T17:02:58.150Z,65.67
2023-04-09T17:05:25.093Z,65.57
2023-04-09T17:07:53.582Z,65.82
2023-04-09T17:10:20.714Z,66.05
2023-04-09T17:12:48.183Z,66.91
2023-04-09T17:15:14.877Z,67.04
2023-04-09T17:17:41.686Z,67.34
2023-04-09T17:20:08.728Z,69.83
2023-04-09T17:22:35.612Z,70.65
2023-04-09T17:25:03.321Z,70.58
2023-04-09T17:27:29.913Z,70.98
2023-04-09T17:29:56.494Z,70.80
2023-04-09T17:32:23.435Z,71.57
2023-04-09T17:34:50.178Z,71.96
2023-04-09T17:37:16.916Z,71.97
2023-04-09T17:39:43.499Z,72.07
2023-04-09T17:42:11.911Z,73.31
2023-04-09T17:44:38.734Z,73.40
2023-04-09T17:47:07.331Z,73.76
2023-04-09T17:49:34.419Z,73.76
2023-04-09T17:52:01.305Z,74.07
2023-04-09T17:54:33.566Z,73.96
2023-04-09T17:57:01.187Z,74.45
2023-04-09T17:59:28.030Z,74.94
2023-04-09T18:01:55.215Z,75.51
2023-04-09T18:04:23.736Z,75.29
2023-04-09T18:06:50.696Z,75.58
2023-04-09T18:09:17.230Z,76.12
2023-04-09T18:11:43.888Z,76.40
2023-04-09T18:14:10.704Z,76.71
2023-04-09T18:16:38.313Z,77.06
2023-04-09T18:19:06.065Z,77.03
2023-04-09T18:21:32.613Z,77.11
2023-04-09T18:23:59.653Z,77.42
2023-04-09T18:26:26.195Z,77.91
2023-04-09T18:28:53.030Z,76.77
2023-04-09T18:31:19.857Z,76.58
2023-04-09T18:33:46.717Z,74.97
2023-04-09T18:36:13.500Z,74.31
2023-04-09T18:38:40.665Z,74.78
2023-04-09T18:41:08.408Z,75.62
2023-04-09T18:43:34.954Z,76.04
2023-04-09T18:46:01.548Z,76.74
2023-04-09T18:48:28.537Z,78.36
2023-04-09T18:50:55.024Z,78.65
2023-04-09T18:53:21.489Z,80.52
2023-04-09T18:55:48.166Z,80.80
2023-04-09T18:58:15.752Z,82.29
2023-04-09T19:00:43.467Z,82.74
2023-04-09T19:03:10.433Z,84.13
2023-04-09T19:05:37.405Z,85.10
2023-04-09T19:08:07.801Z,84.75
2023-04-09T19:10:34.530Z,84.26
2023-04-09T19:13:01.583Z,83.97
2023-04-09T19:15:29.522Z,84.33
2023-04-09T19:17:56.729Z,83.79
2023-04-09T19:20:23.623Z,84.13
2023-04-09T19:22:50.873Z,84.00
2023-04-09T19:25:18.198Z,84.71
2023-04-09T19:27:45.916Z,85.28
2023-04-09T19:30:12.586Z,86.53
2023-04-09T19:32:39.795Z,85.90
2023-04-09T19:35:07.153Z,85.68
2023-04-09T19:37:34.765Z,85.26
2023-04-09T19:40:04.743Z,86.04
2023-04-09T19:42:32.865Z,85.84
2023-04-09T19:45:02.346Z,84.79
2023-04-09T19:47:29.634Z,84.46
2023-04-09T19:49:56.252Z,84.28
2023-04-09T19:52:22.788Z,83.88
2023-04-09T19:54:54.993Z,84.14
2023-04-09T19:57:22.077Z,84.61
2023-04-09T19:59:49.724Z,85.18
2023-04-09T20:02:16.819Z,85.04
2023-04-09T20:04:43.451Z,85.61
2023-04-09T20:07:09.989Z,85.96
2023-04-09T20:09:41.290Z,86.25
2023-04-09T20:12:10.484Z,86.46
2023-04-09T20:14:38.245Z,86.38
2023-04-09T20:17:05.564Z,86.65
2023-04-09T20:19:32.544Z,86.83
2023-04-09T20:22:02.653Z,87.04
2023-04-09T20:24:29.465Z,86.40
2023-04-09T20:26:56.355Z,87.08
2023-04-09T20:29:22.966Z,87.19
2023-04-09T20:31:49.735Z,87.08
2023-04-09T20:34:16.337Z,87.08
2023-04-09T20:36:43.941Z,87.45
2023-04-09T20:39:11.567Z,87.08
2023-04-09T20:41:38.278Z,87.19
2023-04-09T20:44:05.986Z,87.50
2023-04-09T20:46:32.684Z,87.64
2023-04-09T20:48:59.301Z,87.22
2023-04-09T20:51:25.816Z,87.75
2023-04-09T20:53:52.568Z,87.66
2023-04-09T20:56:19.158Z,87.21
2023-04-09T20:58:45.720Z,87.43
2023-04-09T21:01:12.488Z,87.32
2023-04-09T21:03:40.146Z,87.09
2023-04-09T21:06:08.149Z,87.27
2023-04-09T21:08:35.065Z,87.27
2023-04-09T21:11:03.047Z,87.04
2023-04-09T21:13:33.676Z,87.24
2023-04-09T21:16:04.945Z,87.31
2023-04-09T21:18:31.577Z,87.98
2023-04-09T21:20:58.076Z,88.46
2023-04-09T21:23:24.842Z,88.28
2023-04-09T21:25:51.479Z,88.46
2023-04-09T21:28:17.987Z,88.66
2023-04-09T21:30:44.885Z,88.30
2023-04-09T21:33:11.544Z,88.29
2023-04-09T21:35:38.493Z,88.29
2023-04-09T21:38:05.144Z,88.35
2023-04-09T21:40:31.928Z,88.51
2023-04-09T21:42:59.098Z,88.42
2023-04-09T21:45:25.900Z,88.67
2023-04-09T21:47:52.621Z,88.71
2023-04-09T21:50:19.798Z,88.65
2023-04-09T21:52:49.691Z,89.17
2023-04-09T21:55:16.382Z,89.04
2023-04-09T21:57:42.842Z,88.18
2023-04-09T22:00:11.068Z,88.33
2023-04-09T22:02:39.232Z,88.34
2023-04-09T22:05:08.390Z,88.55
2023-04-09T22:07:37.239Z,88.73
2023-04-09T22:10:06.810Z,88.99
2023-04-09T22:12:37.248Z,89.12
2023-04-09T22:15:05.947Z,89.08
2023-04-09T22:17:32.467Z,89.38
2023-04-09T22:19:59.212Z,89.28
2023-04-09T22:22:26.028Z,89.25
2023-04-09T22:24:53.802Z,89.38
2023-04-09T22:27:20.357Z,89.24
2023-04-09T22:29:46.922Z,89.41
2023-04-09T22:32:13.660Z,90.35
2023-04-09T22:34:40.488Z,90.58
2023-04-09T22:37:07.132Z,90.58
2023-04-09T22:39:33.642Z,90.06
2023-04-09T22:42:01.801Z,90.20
2023-04-09T22:44:28.423Z,90.12
2023-04-09T22:46:55.250Z,90.54
2023-04-09T22:49:23.637Z,90.21
2023-04-09T22:51:50.307Z,90.11
2023-04-09T22:54:16.788Z,90.25
2023-04-09T22:56:44.816Z,90.58
2023-04-09T22:59:11.334Z,90.71
2023-04-09T23:01:37.985Z,90.95
2023-04-09T23:04:04.513Z,90.92
2023-04-09T23:06:31.073Z,90.92
2023-04-09T23:08:59.703Z,90.98
2023-04-09T23:11:27.206Z,91.24
2023-04-09T23:13:53.703Z,91.23
2023-04-09T23:16:20.648Z,91.40
2023-04-09T23:18:47.213Z,91.37
2023-04-09T23:21:13.799Z,91.05
2023-04-09T23:23:40.318Z,91.17
2023-04-09T23:26:07.136Z,91.06
2023-04-09T23:28:33.744Z,90.85
2023-04-09T23:31:00.581Z,90.80
2023-04-09T23:33:27.331Z,90.65
2023-04-09T23:35:54.037Z,90.81
2023-04-09T23:38:20.607Z,90.83
2023-04-09T23:40:48.621Z,90.99
2023-04-09T23:43:15.561Z,90.95
2023-04-09T23:45:43.404Z,91.06
2023-04-09T23:48:11.600Z,90.92
2023-04-09T23:50:39.508Z,91.11
2023-04-09T23:53:06.614Z,91.25
2023-04-09T23:55:34.201Z,91.05
2023-04-09T23:58:00.924Z,90.94
